ANE12RZ LEPA-LESU
Flight info
| Callsign | ANE12RZ |
|---|---|
| Flight time | 0h 50m |
| Altitude | 18000 |
| Route | GALAT N861 LATRO |
| Aircraft | AT76/M-SDFGIRY/S |
Departure
| Time | 2026-05-06 14:33 |
|---|---|
| Airport | Palma de Mallorca Airport (LEPA) |
Arrival
| Time | 2026-05-06 15:23 |
|---|---|
| Airport | Pirineus - la Seu d'Urgel Airport (LESU) |
| Time | Latitude | Longitude | Altitude | Speed | Heading |
|---|---|---|---|---|---|
| 2026-05-06 14:15 | 39.54983 | 2.73220 | 35 ft | 0 kts | 184° |
| 2026-05-06 14:27 | 39.54984 | 2.73220 | 35 ft | 1 kts | 184° |
| 2026-05-06 14:27 | 39.55004 | 2.73222 | 35 ft | 4 kts | 179° |
| 2026-05-06 14:27 | 39.55023 | 2.73207 | 35 ft | 4 kts | 97° |
| 2026-05-06 14:28 | 39.55030 | 2.73236 | 35 ft | 5 kts | 76° |
| 2026-05-06 14:28 | 39.55044 | 2.73291 | 35 ft | 15 kts | 71° |
| 2026-05-06 14:28 | 39.55082 | 2.73391 | 35 ft | 10 kts | 59° |
| 2026-05-06 14:28 | 39.55114 | 2.73459 | 35 ft | 8 kts | 59° |
| 2026-05-06 14:29 | 39.55138 | 2.73510 | 35 ft | 6 kts | 58° |
| 2026-05-06 14:29 | 39.55181 | 2.73612 | 35 ft | 13 kts | 76° |
| 2026-05-06 14:29 | 39.55172 | 2.73710 | 35 ft | 12 kts | 96° |
| 2026-05-06 14:29 | 39.55180 | 2.73824 | 35 ft | 10 kts | 82° |
| 2026-05-06 14:30 | 39.55149 | 2.73872 | 35 ft | 7 kts | 150° |
| 2026-05-06 14:30 | 39.55087 | 2.73918 | 35 ft | 11 kts | 147° |
| 2026-05-06 14:30 | 39.55033 | 2.73963 | 35 ft | 9 kts | 148° |
| 2026-05-06 14:30 | 39.54986 | 2.74001 | 35 ft | 8 kts | 148° |
| 2026-05-06 14:31 | 39.54909 | 2.74061 | 35 ft | 17 kts | 149° |
| 2026-05-06 14:31 | 39.54819 | 2.74124 | 35 ft | 13 kts | 169° |
| 2026-05-06 14:31 | 39.54758 | 2.74061 | 35 ft | 23 kts | 238° |
| 2026-05-06 14:31 | 39.54671 | 2.73878 | 35 ft | 24 kts | 238° |
| 2026-05-06 14:32 | 39.54592 | 2.73715 | 35 ft | 15 kts | 237° |
| 2026-05-06 14:32 | 39.54534 | 2.73682 | 35 ft | 5 kts | 147° |
| 2026-05-06 14:32 | 39.54499 | 2.73714 | 35 ft | 7 kts | 145° |
| 2026-05-06 14:32 | 39.54429 | 2.73806 | 35 ft | 20 kts | 92° |
| 2026-05-06 14:33 | 39.54594 | 2.74163 | 35 ft | 76 kts | 59° |
| 2026-05-06 14:33 | 39.54971 | 2.74936 | 144 ft | 115 kts | 60° |
| 2026-05-06 14:33 | 39.55417 | 2.75816 | 635 ft | 126 kts | 59° |
| 2026-05-06 14:33 | 39.55951 | 2.76879 | 902 ft | 153 kts | 58° |
| 2026-05-06 14:34 | 39.56569 | 2.78097 | 1362 ft | 167 kts | 58° |
| 2026-05-06 14:34 | 39.57220 | 2.79387 | 1879 ft | 174 kts | 58° |
| 2026-05-06 14:34 | 39.57902 | 2.80742 | 2308 ft | 190 kts | 57° |
| 2026-05-06 14:34 | 39.58663 | 2.82240 | 2735 ft | 203 kts | 57° |
| 2026-05-06 14:35 | 39.59447 | 2.83783 | 3187 ft | 210 kts | 57° |
| 2026-05-06 14:35 | 39.60261 | 2.85396 | 3666 ft | 214 kts | 57° |
| 2026-05-06 14:35 | 39.61078 | 2.87030 | 4166 ft | 217 kts | 57° |
| 2026-05-06 14:35 | 39.61944 | 2.88629 | 4640 ft | 219 kts | 43° |
| 2026-05-06 14:36 | 39.63301 | 2.89441 | 5109 ft | 219 kts | 4° |
| 2026-05-06 14:36 | 39.64823 | 2.89442 | 5609 ft | 219 kts | 355° |
| 2026-05-06 14:36 | 39.66335 | 2.89147 | 6119 ft | 220 kts | 336° |
| 2026-05-06 14:36 | 39.67473 | 2.87883 | 6601 ft | 216 kts | 301° |
| 2026-05-06 14:37 | 39.68223 | 2.86217 | 7084 ft | 216 kts | 298° |
| 2026-05-06 14:37 | 39.68969 | 2.84521 | 7592 ft | 218 kts | 298° |
| 2026-05-06 14:37 | 39.69750 | 2.82824 | 8135 ft | 219 kts | 300° |
| 2026-05-06 14:37 | 39.70568 | 2.81176 | 8658 ft | 213 kts | 302° |
| 2026-05-06 14:38 | 39.71392 | 2.79597 | 9129 ft | 210 kts | 302° |
| 2026-05-06 14:38 | 39.72221 | 2.78008 | 9621 ft | 215 kts | 302° |
| 2026-05-06 14:38 | 39.73066 | 2.76414 | 10097 ft | 217 kts | 302° |
| 2026-05-06 14:38 | 39.73929 | 2.74787 | 10589 ft | 219 kts | 302° |
| 2026-05-06 14:39 | 39.74802 | 2.73138 | 11083 ft | 220 kts | 301° |
| 2026-05-06 14:39 | 39.75667 | 2.71512 | 11597 ft | 221 kts | 301° |
| 2026-05-06 14:39 | 39.76541 | 2.69844 | 12107 ft | 222 kts | 301° |
| 2026-05-06 14:39 | 39.77398 | 2.68200 | 12636 ft | 222 kts | 300° |
| 2026-05-06 14:40 | 39.78268 | 2.66533 | 13222 ft | 222 kts | 300° |
| 2026-05-06 14:40 | 39.79130 | 2.64874 | 13773 ft | 222 kts | 300° |
| 2026-05-06 14:40 | 39.79997 | 2.63205 | 14264 ft | 222 kts | 300° |
| 2026-05-06 14:40 | 39.80856 | 2.61552 | 14736 ft | 222 kts | 299° |
| 2026-05-06 14:41 | 39.81723 | 2.59881 | 15211 ft | 221 kts | 299° |
| 2026-05-06 14:41 | 39.82580 | 2.58229 | 15708 ft | 221 kts | 298° |
| 2026-05-06 14:41 | 39.83433 | 2.56582 | 16193 ft | 221 kts | 298° |
| 2026-05-06 14:41 | 39.84297 | 2.54916 | 16658 ft | 220 kts | 298° |
| 2026-05-06 14:42 | 39.85144 | 2.53281 | 17109 ft | 220 kts | 298° |
| 2026-05-06 14:42 | 39.86003 | 2.51619 | 17552 ft | 220 kts | 297° |
| 2026-05-06 14:42 | 39.86863 | 2.49953 | 17821 ft | 228 kts | 297° |
| 2026-05-06 14:42 | 39.87768 | 2.48202 | 17920 ft | 240 kts | 298° |
| 2026-05-06 14:43 | 39.88727 | 2.46340 | 17963 ft | 251 kts | 298° |
| 2026-05-06 14:43 | 39.89714 | 2.44427 | 17980 ft | 254 kts | 298° |
| 2026-05-06 14:43 | 39.90696 | 2.42524 | 17985 ft | 257 kts | 298° |
| 2026-05-06 14:43 | 39.91705 | 2.40565 | 17989 ft | 259 kts | 298° |
| 2026-05-06 14:44 | 39.92714 | 2.38605 | 17993 ft | 261 kts | 298° |
| 2026-05-06 14:44 | 39.93719 | 2.36652 | 17994 ft | 263 kts | 298° |
| 2026-05-06 14:44 | 39.94745 | 2.34655 | 17994 ft | 264 kts | 298° |
| 2026-05-06 14:45 | 39.96781 | 2.30696 | 17992 ft | 265 kts | 298° |
| 2026-05-06 14:45 | 39.97816 | 2.28682 | 18004 ft | 266 kts | 298° |
| 2026-05-06 14:45 | 39.98845 | 2.26677 | 17998 ft | 266 kts | 298° |
| 2026-05-06 14:45 | 39.99870 | 2.24680 | 17996 ft | 266 kts | 298° |
| 2026-05-06 14:46 | 40.00906 | 2.22660 | 18007 ft | 266 kts | 298° |
| 2026-05-06 14:46 | 40.01929 | 2.20664 | 18004 ft | 266 kts | 297° |
| 2026-05-06 14:46 | 40.02963 | 2.18644 | 18000 ft | 266 kts | 298° |
| 2026-05-06 14:46 | 40.03984 | 2.16649 | 18000 ft | 266 kts | 298° |
| 2026-05-06 14:47 | 40.04999 | 2.14662 | 17996 ft | 265 kts | 297° |
| 2026-05-06 14:47 | 40.06032 | 2.12641 | 17998 ft | 265 kts | 297° |
| 2026-05-06 14:47 | 40.07049 | 2.10649 | 17998 ft | 265 kts | 297° |
| 2026-05-06 14:47 | 40.08066 | 2.08655 | 17997 ft | 265 kts | 297° |
| 2026-05-06 14:48 | 40.09088 | 2.06651 | 18000 ft | 265 kts | 297° |
| 2026-05-06 14:48 | 40.10113 | 2.04638 | 18001 ft | 264 kts | 297° |
| 2026-05-06 14:48 | 40.11125 | 2.02654 | 18002 ft | 264 kts | 297° |
| 2026-05-06 14:48 | 40.12150 | 2.00645 | 18001 ft | 264 kts | 298° |
| 2026-05-06 14:49 | 40.13161 | 1.98661 | 17998 ft | 264 kts | 297° |
| 2026-05-06 14:49 | 40.14184 | 1.96647 | 17998 ft | 264 kts | 297° |
| 2026-05-06 14:49 | 40.15298 | 1.94765 | 17996 ft | 269 kts | 313° |
| 2026-05-06 14:49 | 40.17017 | 1.93610 | 18000 ft | 284 kts | 335° |
| 2026-05-06 14:50 | 40.18957 | 1.93046 | 17998 ft | 291 kts | 343° |
| 2026-05-06 14:50 | 40.20981 | 1.92661 | 17994 ft | 293 kts | 345° |
| 2026-05-06 14:50 | 40.22990 | 1.92301 | 17996 ft | 293 kts | 345° |
| 2026-05-06 14:50 | 40.25015 | 1.91895 | 18007 ft | 293 kts | 343° |
| 2026-05-06 14:51 | 40.27003 | 1.91431 | 18003 ft | 292 kts | 342° |
| 2026-05-06 14:51 | 40.29013 | 1.90954 | 18000 ft | 292 kts | 342° |
| 2026-05-06 14:51 | 40.30998 | 1.90491 | 18004 ft | 292 kts | 342° |
| 2026-05-06 14:51 | 40.33007 | 1.90024 | 17999 ft | 292 kts | 342° |
| 2026-05-06 14:52 | 40.34995 | 1.89562 | 17997 ft | 292 kts | 342° |
| 2026-05-06 14:52 | 40.36986 | 1.89099 | 17994 ft | 292 kts | 342° |
| 2026-05-06 14:52 | 40.38981 | 1.88632 | 17991 ft | 292 kts | 342° |
| 2026-05-06 14:52 | 40.40967 | 1.88169 | 17995 ft | 292 kts | 342° |
| 2026-05-06 14:53 | 40.42976 | 1.87700 | 17994 ft | 291 kts | 342° |
| 2026-05-06 14:53 | 40.44305 | 1.87391 | 17998 ft | 291 kts | 342° |
| 2026-05-06 14:53 | 40.46300 | 1.86925 | 18001 ft | 291 kts | 342° |
| 2026-05-06 14:53 | 40.48958 | 1.86304 | 17992 ft | 291 kts | 342° |
| 2026-05-06 14:54 | 40.50292 | 1.85991 | 17997 ft | 291 kts | 342° |
| 2026-05-06 14:54 | 40.52278 | 1.85525 | 17989 ft | 291 kts | 342° |
| 2026-05-06 14:54 | 40.54291 | 1.85055 | 17988 ft | 291 kts | 342° |
| 2026-05-06 14:54 | 40.56291 | 1.84587 | 17992 ft | 291 kts | 342° |
| 2026-05-06 14:55 | 40.58266 | 1.84124 | 17989 ft | 291 kts | 342° |
| 2026-05-06 14:55 | 40.60265 | 1.83653 | 17992 ft | 291 kts | 342° |
| 2026-05-06 14:55 | 40.62265 | 1.83185 | 17984 ft | 291 kts | 342° |
| 2026-05-06 14:55 | 40.64239 | 1.82719 | 17985 ft | 291 kts | 342° |
| 2026-05-06 14:56 | 40.66244 | 1.82250 | 17985 ft | 291 kts | 342° |
| 2026-05-06 14:56 | 40.68218 | 1.81784 | 17985 ft | 291 kts | 342° |
| 2026-05-06 14:56 | 40.70219 | 1.81315 | 17985 ft | 291 kts | 342° |
| 2026-05-06 14:56 | 40.72200 | 1.80847 | 17985 ft | 291 kts | 342° |
| 2026-05-06 14:57 | 40.74181 | 1.80381 | 17979 ft | 291 kts | 342° |
| 2026-05-06 14:57 | 40.76186 | 1.79908 | 17979 ft | 291 kts | 342° |
| 2026-05-06 14:57 | 40.78163 | 1.79440 | 17982 ft | 291 kts | 342° |
| 2026-05-06 14:57 | 40.80165 | 1.78970 | 17979 ft | 291 kts | 342° |
| 2026-05-06 14:58 | 40.82164 | 1.78495 | 17982 ft | 290 kts | 342° |
| 2026-05-06 14:58 | 40.84136 | 1.78032 | 17981 ft | 291 kts | 342° |
| 2026-05-06 14:58 | 40.86138 | 1.77556 | 17981 ft | 290 kts | 342° |
| 2026-05-06 14:58 | 40.88120 | 1.77089 | 17987 ft | 290 kts | 342° |
| 2026-05-06 14:59 | 40.90096 | 1.76620 | 17999 ft | 290 kts | 343° |
| 2026-05-06 14:59 | 40.92094 | 1.76145 | 17983 ft | 290 kts | 343° |
| 2026-05-06 14:59 | 40.94068 | 1.75681 | 17981 ft | 290 kts | 343° |
| 2026-05-06 14:59 | 40.96067 | 1.75206 | 17979 ft | 290 kts | 343° |
| 2026-05-06 15:00 | 40.98053 | 1.74736 | 17980 ft | 289 kts | 343° |
| 2026-05-06 15:00 | 41.00020 | 1.74267 | 17978 ft | 289 kts | 343° |
| 2026-05-06 15:00 | 41.02008 | 1.73796 | 17979 ft | 289 kts | 343° |
| 2026-05-06 15:00 | 41.03978 | 1.73328 | 17978 ft | 289 kts | 343° |
| 2026-05-06 15:01 | 41.05967 | 1.72882 | 17980 ft | 289 kts | 344° |
| 2026-05-06 15:01 | 41.07938 | 1.72522 | 17984 ft | 290 kts | 346° |
| 2026-05-06 15:01 | 41.09964 | 1.72224 | 17983 ft | 291 kts | 347° |
| 2026-05-06 15:01 | 41.11984 | 1.71925 | 17996 ft | 291 kts | 347° |
| 2026-05-06 15:02 | 41.13974 | 1.71619 | 17985 ft | 291 kts | 347° |
| 2026-05-06 15:02 | 41.15994 | 1.71310 | 17983 ft | 291 kts | 347° |
| 2026-05-06 15:02 | 41.17997 | 1.71001 | 17987 ft | 290 kts | 347° |
| 2026-05-06 15:02 | 41.20007 | 1.70686 | 17987 ft | 290 kts | 347° |
| 2026-05-06 15:03 | 41.22002 | 1.70378 | 17987 ft | 290 kts | 347° |
| 2026-05-06 15:03 | 41.24011 | 1.70081 | 17989 ft | 290 kts | 347° |
| 2026-05-06 15:03 | 41.26024 | 1.69775 | 17986 ft | 290 kts | 347° |
| 2026-05-06 15:03 | 41.28007 | 1.69471 | 17987 ft | 290 kts | 347° |
| 2026-05-06 15:04 | 41.30023 | 1.69171 | 17988 ft | 290 kts | 347° |
| 2026-05-06 15:04 | 41.32031 | 1.68875 | 17988 ft | 291 kts | 347° |
| 2026-05-06 15:04 | 41.34046 | 1.68566 | 17998 ft | 290 kts | 348° |
| 2026-05-06 15:04 | 41.36051 | 1.68233 | 17987 ft | 290 kts | 348° |
| 2026-05-06 15:05 | 41.38059 | 1.67910 | 17979 ft | 290 kts | 348° |
| 2026-05-06 15:05 | 41.40037 | 1.67602 | 17978 ft | 290 kts | 349° |
| 2026-05-06 15:05 | 41.42045 | 1.67289 | 17976 ft | 289 kts | 348° |
| 2026-05-06 15:05 | 41.44049 | 1.66977 | 17973 ft | 289 kts | 348° |
| 2026-05-06 15:06 | 41.46049 | 1.66664 | 17975 ft | 289 kts | 348° |
| 2026-05-06 15:06 | 41.48059 | 1.66352 | 17971 ft | 289 kts | 348° |
| 2026-05-06 15:06 | 41.50042 | 1.66045 | 17972 ft | 289 kts | 348° |
| 2026-05-06 15:06 | 41.52039 | 1.65731 | 17970 ft | 288 kts | 348° |
| 2026-05-06 15:07 | 41.54018 | 1.65420 | 17973 ft | 289 kts | 348° |
| 2026-05-06 15:07 | 41.56013 | 1.65104 | 17976 ft | 289 kts | 349° |
| 2026-05-06 15:07 | 41.58020 | 1.64794 | 17970 ft | 289 kts | 349° |
| 2026-05-06 15:07 | 41.60025 | 1.64479 | 17964 ft | 289 kts | 349° |
| 2026-05-06 15:08 | 41.62008 | 1.64167 | 17964 ft | 289 kts | 349° |
| 2026-05-06 15:08 | 41.64004 | 1.63853 | 17962 ft | 289 kts | 349° |
| 2026-05-06 15:08 | 41.66012 | 1.63538 | 17961 ft | 289 kts | 349° |
| 2026-05-06 15:08 | 41.68016 | 1.63225 | 17947 ft | 289 kts | 349° |
| 2026-05-06 15:09 | 41.69993 | 1.62911 | 17955 ft | 289 kts | 349° |
| 2026-05-06 15:09 | 41.71994 | 1.62597 | 17960 ft | 289 kts | 349° |
| 2026-05-06 15:09 | 41.74000 | 1.62281 | 17955 ft | 289 kts | 349° |
| 2026-05-06 15:09 | 41.75921 | 1.61672 | 17959 ft | 280 kts | 329° |
| 2026-05-06 15:10 | 41.77442 | 1.60147 | 17967 ft | 275 kts | 315° |
| 2026-05-06 15:10 | 41.78734 | 1.58269 | 17972 ft | 274 kts | 304° |
| 2026-05-06 15:10 | 41.79756 | 1.56134 | 17977 ft | 272 kts | 297° |
| 2026-05-06 15:10 | 41.80665 | 1.53884 | 17975 ft | 272 kts | 296° |
| 2026-05-06 15:11 | 41.81546 | 1.51639 | 17732 ft | 280 kts | 296° |
| 2026-05-06 15:11 | 41.82500 | 1.49288 | 17296 ft | 292 kts | 298° |
| 2026-05-06 15:11 | 41.83516 | 1.46924 | 16852 ft | 293 kts | 299° |
| 2026-05-06 15:11 | 41.84542 | 1.44591 | 16412 ft | 286 kts | 299° |
| 2026-05-06 15:12 | 41.85547 | 1.42308 | 15992 ft | 280 kts | 298° |
| 2026-05-06 15:12 | 41.86516 | 1.40054 | 15587 ft | 275 kts | 298° |
| 2026-05-06 15:12 | 41.87453 | 1.37856 | 15197 ft | 272 kts | 298° |
| 2026-05-06 15:12 | 41.88391 | 1.35658 | 14823 ft | 268 kts | 298° |
| 2026-05-06 15:13 | 41.89314 | 1.33494 | 14442 ft | 266 kts | 298° |
| 2026-05-06 15:13 | 41.90223 | 1.31358 | 14072 ft | 264 kts | 298° |
| 2026-05-06 15:13 | 41.91122 | 1.29243 | 13700 ft | 262 kts | 298° |
| 2026-05-06 15:13 | 41.92025 | 1.27121 | 13297 ft | 260 kts | 298° |
| 2026-05-06 15:14 | 41.93051 | 1.25171 | 12881 ft | 258 kts | 316° |
| 2026-05-06 15:14 | 41.94680 | 1.24105 | 12475 ft | 264 kts | 341° |
| 2026-05-06 15:14 | 41.96513 | 1.23740 | 12068 ft | 268 kts | 354° |
| 2026-05-06 15:14 | 41.98392 | 1.23817 | 11663 ft | 270 kts | 1° |
| 2026-05-06 15:15 | 42.00247 | 1.24058 | 11276 ft | 270 kts | 2° |
| 2026-05-06 15:15 | 42.02122 | 1.24317 | 10874 ft | 270 kts | 2° |
| 2026-05-06 15:15 | 42.03995 | 1.24530 | 10476 ft | 268 kts | 0° |
| 2026-05-06 15:15 | 42.05835 | 1.24694 | 10105 ft | 267 kts | 359° |
| 2026-05-06 15:16 | 42.07687 | 1.24850 | 9699 ft | 265 kts | 0° |
| 2026-05-06 15:16 | 42.09497 | 1.25257 | 9290 ft | 265 kts | 17° |
| 2026-05-06 15:16 | 42.11186 | 1.26297 | 8866 ft | 267 kts | 25° |
| 2026-05-06 15:16 | 42.12826 | 1.27443 | 8472 ft | 267 kts | 25° |
| 2026-05-06 15:17 | 42.14490 | 1.28581 | 8078 ft | 267 kts | 24° |
| 2026-05-06 15:17 | 42.16150 | 1.29648 | 7699 ft | 267 kts | 22° |
| 2026-05-06 15:17 | 42.17842 | 1.30688 | 7315 ft | 267 kts | 21° |
| 2026-05-06 15:17 | 42.19542 | 1.31714 | 7058 ft | 264 kts | 22° |
| 2026-05-06 15:18 | 42.21225 | 1.32718 | 6633 ft | 269 kts | 22° |
| 2026-05-06 15:18 | 42.22971 | 1.33790 | 6041 ft | 279 kts | 22° |
| 2026-05-06 15:18 | 42.24721 | 1.34872 | 5497 ft | 278 kts | 22° |
| 2026-05-06 15:18 | 42.26459 | 1.35957 | 5164 ft | 261 kts | 24° |
| 2026-05-06 15:19 | 42.28080 | 1.36990 | 5118 ft | 251 kts | 24° |
| 2026-05-06 15:19 | 42.29593 | 1.37931 | 5104 ft | 233 kts | 22° |
| 2026-05-06 15:19 | 42.31059 | 1.38527 | 4740 ft | 206 kts | 354° |
| 2026-05-06 15:19 | 42.32228 | 1.37737 | 4766 ft | 190 kts | 298° |
| 2026-05-06 15:20 | 42.32077 | 1.36162 | 4433 ft | 201 kts | 208° |
| 2026-05-06 15:20 | 42.30853 | 1.36685 | 3973 ft | 210 kts | 121° |
| 2026-05-06 15:20 | 42.30989 | 1.38615 | 3822 ft | 219 kts | 57° |
| 2026-05-06 15:20 | 42.32190 | 1.39631 | 3362 ft | 199 kts | 21° |
| 2026-05-06 15:21 | 42.33422 | 1.40502 | 2759 ft | 196 kts | 30° |
| 2026-05-06 15:21 | 42.34511 | 1.41421 | 3304 ft | 177 kts | 31° |
| 2026-05-06 15:21 | 42.35507 | 1.42484 | 3402 ft | 195 kts | 59° |
| 2026-05-06 15:21 | 42.35613 | 1.44234 | 3619 ft | 199 kts | 122° |
| 2026-05-06 15:22 | 42.34532 | 1.45155 | 3915 ft | 188 kts | 198° |
| 2026-05-06 15:22 | 42.33555 | 1.43955 | 3749 ft | 203 kts | 231° |
| 2026-05-06 15:22 | 42.32787 | 1.42488 | 3397 ft | 183 kts | 237° |
| 2026-05-06 15:22 | 42.32188 | 1.41101 | 3313 ft | 151 kts | 244° |
| 2026-05-06 15:23 | 42.32512 | 1.39983 | 3209 ft | 144 kts | 329° |
| 2026-05-06 15:23 | 42.33365 | 1.40330 | 2862 ft | 139 kts | 57° |
| 2026-05-06 15:23 | 42.34133 | 1.41085 | 2637 ft | 124 kts | 33° |
| 2026-05-06 15:23 | 42.34490 | 1.41408 | 2635 ft | 26 kts | 54° |
| 2026-05-06 15:24 | 42.34541 | 1.41518 | 2634 ft | 0 kts | 50° |